createdAt,value
2022-08-22T00:00:22.293Z,16.04
2022-08-22T00:02:54.938Z,16.13
2022-08-22T00:03:11.562Z,16.04
2022-08-22T00:03:47.460Z,16.04
2022-08-22T00:07:01.399Z,16.04
2022-08-22T00:10:28.544Z,16.05
2022-08-22T00:13:42.570Z,16.05
2022-08-22T00:16:58.869Z,16.06
2022-08-22T00:20:13.485Z,16.07
2022-08-22T00:23:32.800Z,16.07
2022-08-22T00:26:45.490Z,16.08
2022-08-22T00:29:51.294Z,16.09
2022-08-22T00:33:01.817Z,16.08
2022-08-22T00:36:13.749Z,16.08
2022-08-22T00:39:22.822Z,16.09
2022-08-22T00:42:32.051Z,16.10
2022-08-22T00:45:56.037Z,16.10
2022-08-22T00:49:08.005Z,16.10
2022-08-22T00:52:20.036Z,16.09
2022-08-22T00:55:40.629Z,16.09
2022-08-22T00:59:23.718Z,16.10
2022-08-22T01:03:03.990Z,16.11
2022-08-22T01:06:20.965Z,16.11
2022-08-22T01:09:37.666Z,16.11
2022-08-22T01:12:52.184Z,16.11
2022-08-22T01:16:06.350Z,16.11
2022-08-22T01:19:45.753Z,16.10
2022-08-22T01:23:18.682Z,16.09
2022-08-22T01:26:39.134Z,16.08
2022-08-22T01:29:52.632Z,16.07
2022-08-22T01:33:32.362Z,16.07
2022-08-22T01:37:11.491Z,16.07
2022-08-22T01:40:19.338Z,16.06
2022-08-22T01:43:51.504Z,16.06
2022-08-22T01:46:57.151Z,16.06
2022-08-22T01:50:23.491Z,16.06
2022-08-22T01:53:39.979Z,16.07
2022-08-22T01:56:46.948Z,16.09
2022-08-22T01:59:52.834Z,16.11
2022-08-22T02:03:12.063Z,16.12
2022-08-22T02:06:17.677Z,16.13
2022-08-22T02:09:39.009Z,16.12
2022-08-22T02:12:40.625Z,16.12
2022-08-22T02:16:04.988Z,16.12
2022-08-22T02:19:16.047Z,16.12
2022-08-22T02:22:32.144Z,16.12
2022-08-22T02:26:03.934Z,16.12
2022-08-22T02:29:17.818Z,16.12
2022-08-22T02:32:33.171Z,16.14
2022-08-22T02:35:47.341Z,16.14
2022-08-22T02:38:55.145Z,16.16
2022-08-22T02:42:07.254Z,16.17
2022-08-22T02:45:17.798Z,16.18
2022-08-22T02:48:19.509Z,16.19
2022-08-22T02:51:32.179Z,16.21
2022-08-22T02:54:49.150Z,16.21
2022-08-22T02:58:11.794Z,16.23
2022-08-22T03:01:22.289Z,16.22
2022-08-22T03:04:30.117Z,16.23
2022-08-22T03:07:40.445Z,16.23
2022-08-22T03:11:23.099Z,16.24
2022-08-22T03:14:31.967Z,16.24
2022-08-22T03:17:40.481Z,16.24
2022-08-22T03:20:44.590Z,16.25
2022-08-22T03:23:51.001Z,16.26
2022-08-22T03:27:02.990Z,16.27
2022-08-22T03:30:17.861Z,16.28
2022-08-22T03:33:30.401Z,16.29
2022-08-22T03:36:32.791Z,16.30
2022-08-22T03:39:48.595Z,16.31
2022-08-22T03:43:18.704Z,16.32
2022-08-22T03:46:24.054Z,16.35
2022-08-22T03:49:49.346Z,16.35
2022-08-22T03:53:18.845Z,16.37
2022-08-22T03:56:41.665Z,16.39
2022-08-22T04:00:28.873Z,16.41
2022-08-22T04:04:07.139Z,16.45
2022-08-22T04:07:40.049Z,16.49
2022-08-22T04:11:18.992Z,16.52
2022-08-22T04:14:38.529Z,16.56
2022-08-22T04:17:57.123Z,16.60
2022-08-22T04:21:37.355Z,16.63
2022-08-22T04:25:07.978Z,16.69
2022-08-22T04:28:12.896Z,16.73
2022-08-22T04:31:19.295Z,16.77
2022-08-22T04:34:35.349Z,16.80
2022-08-22T04:38:05.135Z,16.85
2022-08-22T04:41:14.231Z,16.92
2022-08-22T04:44:40.432Z,16.95
2022-08-22T04:47:53.964Z,16.98
2022-08-22T04:51:06.397Z,17.01
2022-08-22T04:54:24.792Z,17.06
2022-08-22T04:57:34.174Z,17.11
2022-08-22T05:00:52.405Z,17.11
2022-08-22T05:04:01.324Z,17.13
2022-08-22T05:07:14.821Z,17.16
2022-08-22T05:10:22.340Z,17.19
2022-08-22T05:13:29.286Z,17.18
2022-08-22T05:16:41.367Z,17.19
2022-08-22T05:19:50.706Z,17.20
2022-08-22T05:22:57.008Z,17.22
2022-08-22T05:26:01.549Z,17.26
2022-08-22T05:29:08.445Z,17.29
2022-08-22T05:32:19.930Z,17.34
2022-08-22T05:35:38.576Z,17.38
2022-08-22T05:38:48.888Z,17.46
2022-08-22T05:41:59.291Z,17.50
2022-08-22T05:45:03.252Z,17.54
2022-08-22T05:48:39.703Z,17.58
2022-08-22T05:52:16.642Z,17.65
2022-08-22T05:55:43.447Z,17.72
2022-08-22T05:58:52.781Z,17.78
2022-08-22T06:02:05.422Z,17.86
2022-08-22T06:05:11.855Z,17.93
2022-08-22T06:08:36.873Z,17.98
2022-08-22T06:11:51.675Z,18.05
2022-08-22T06:14:59.605Z,18.12
2022-08-22T06:18:06.618Z,18.21
2022-08-22T06:21:13.301Z,18.26
2022-08-22T06:24:22.488Z,18.28
2022-08-22T06:27:27.361Z,18.32
2022-08-22T06:30:34.392Z,18.45
2022-08-22T06:33:42.332Z,18.59
2022-08-22T06:36:50.036Z,18.70
2022-08-22T06:39:54.188Z,18.73
2022-08-22T06:42:57.337Z,18.78
2022-08-22T06:46:00.250Z,18.91
2022-08-22T06:49:03.521Z,19.03
2022-08-22T06:52:14.007Z,19.07
2022-08-22T06:55:16.193Z,19.17
2022-08-22T06:58:23.295Z,19.31
2022-08-22T07:01:41.055Z,19.40
2022-08-22T07:04:43.129Z,19.47
2022-08-22T07:07:45.634Z,19.55
2022-08-22T07:11:28.199Z,19.63
2022-08-22T07:14:40.574Z,19.72
2022-08-22T07:17:51.514Z,19.74
2022-08-22T07:20:55.327Z,19.72
2022-08-22T07:24:01.107Z,19.64
2022-08-22T07:27:14.123Z,19.50
2022-08-22T07:30:27.272Z,19.41
2022-08-22T07:33:48.660Z,19.41
2022-08-22T07:36:59.172Z,19.42
2022-08-22T07:40:14.048Z,19.43
2022-08-22T07:43:30.805Z,19.42
2022-08-22T07:46:38.526Z,19.43
2022-08-22T07:49:56.899Z,19.42
2022-08-22T07:53:06.081Z,19.44
2022-08-22T07:56:15.590Z,19.47
2022-08-22T07:59:20.273Z,19.50
2022-08-22T08:02:22.218Z,19.53
2022-08-22T08:05:27.596Z,19.57
2022-08-22T08:08:34.769Z,19.60
2022-08-22T08:11:42.471Z,19.59
2022-08-22T08:14:46.242Z,19.55
2022-08-22T08:17:52.981Z,19.50
2022-08-22T08:21:00.149Z,19.49
2022-08-22T08:24:02.493Z,19.52
2022-08-22T08:27:26.447Z,19.54
2022-08-22T08:30:46.769Z,19.58
2022-08-22T08:33:50.470Z,19.65
2022-08-22T08:36:54.398Z,19.74
2022-08-22T08:39:58.452Z,19.81
2022-08-22T08:43:29.879Z,19.91
2022-08-22T08:46:55.906Z,20.08
2022-08-22T08:50:24.293Z,20.26
2022-08-22T08:53:41.177Z,20.33
2022-08-22T08:56:59.814Z,20.44
2022-08-22T09:00:14.771Z,20.49
2022-08-22T09:03:43.870Z,20.48
2022-08-22T09:07:01.095Z,20.40
2022-08-22T09:10:31.095Z,20.32
2022-08-22T09:13:51.335Z,20.20
2022-08-22T09:16:56.148Z,20.16
2022-08-22T09:20:17.781Z,20.10
2022-08-22T09:23:36.261Z,20.09
2022-08-22T09:26:44.457Z,20.00
2022-08-22T09:29:59.859Z,19.96
2022-08-22T09:33:12.063Z,19.96
2022-08-22T09:36:35.958Z,20.01
2022-08-22T09:40:04.969Z,20.07
2022-08-22T09:43:21.006Z,20.13
2022-08-22T09:46:36.553Z,20.12
2022-08-22T09:50:01.163Z,20.08
2022-08-22T09:53:21.954Z,20.06
2022-08-22T09:56:29.272Z,20.09
2022-08-22T09:59:36.138Z,20.11
2022-08-22T10:02:55.841Z,20.15
2022-08-22T10:06:05.488Z,20.16
2022-08-22T10:09:12.124Z,20.18
2022-08-22T10:12:25.133Z,20.16
2022-08-22T10:15:40.238Z,20.10
2022-08-22T10:18:52.744Z,20.02
2022-08-22T10:22:24.356Z,19.94
2022-08-22T10:25:41.860Z,19.89
2022-08-22T10:28:54.248Z,19.88
2022-08-22T10:32:14.517Z,19.90
2022-08-22T10:35:33.992Z,19.90
2022-08-22T10:38:54.728Z,19.89
2022-08-22T10:42:24.257Z,19.92
2022-08-22T10:45:37.013Z,20.00
2022-08-22T10:48:57.516Z,20.11
2022-08-22T10:52:13.657Z,20.26
2022-08-22T10:55:27.588Z,20.40
2022-08-22T10:58:32.916Z,20.44
2022-08-22T11:01:42.424Z,20.48
2022-08-22T11:05:22.064Z,20.64
2022-08-22T11:08:30.002Z,20.90
2022-08-22T11:11:47.778Z,21.15
2022-08-22T11:15:04.566Z,21.49
2022-08-22T11:18:20.594Z,22.02
2022-08-22T11:21:41.161Z,22.51
2022-08-22T11:25:11.242Z,22.92
2022-08-22T11:28:13.437Z,23.62
2022-08-22T11:31:28.164Z,24.30
2022-08-22T11:34:51.391Z,24.58
2022-08-22T11:38:01.326Z,24.96
2022-08-22T11:41:24.373Z,25.44
2022-08-22T11:44:50.461Z,26.10
2022-08-22T11:48:02.654Z,26.65
2022-08-22T11:51:13.016Z,26.79
2022-08-22T11:54:28.710Z,26.74
2022-08-22T11:57:44.862Z,26.61
2022-08-22T12:01:17.026Z,26.17
2022-08-22T12:04:36.033Z,25.80
2022-08-22T12:07:53.467Z,25.76
2022-08-22T12:11:02.314Z,25.82
2022-08-22T12:14:19.248Z,25.80
2022-08-22T12:18:01.266Z,25.44
2022-08-22T12:21:12.578Z,25.28
2022-08-22T12:24:26.726Z,25.54
2022-08-22T12:27:31.566Z,25.60
2022-08-22T12:30:54.792Z,25.74
2022-08-22T12:34:20.670Z,25.75
2022-08-22T12:37:30.135Z,25.74
2022-08-22T12:41:34.565Z,25.76
2022-08-22T12:45:08.433Z,26.04
2022-08-22T12:48:16.571Z,26.20
2022-08-22T12:51:45.315Z,26.32
2022-08-22T12:55:12.177Z,26.49
2022-08-22T12:58:37.407Z,26.70
2022-08-22T13:01:43.913Z,27.10
2022-08-22T13:04:54.057Z,27.47
2022-08-22T13:08:04.368Z,27.81
2022-08-22T13:11:15.089Z,28.11
2022-08-22T13:14:26.947Z,28.12
2022-08-22T13:17:29.540Z,28.21
2022-08-22T13:20:35.929Z,28.34
2022-08-22T13:23:43.968Z,28.21
2022-08-22T13:26:53.768Z,28.21
2022-08-22T13:30:04.764Z,28.34
2022-08-22T13:33:24.008Z,28.26
2022-08-22T13:36:27.262Z,27.72
2022-08-22T13:39:37.876Z,27.49
2022-08-22T13:42:49.293Z,27.47
2022-08-22T13:46:02.844Z,27.62
2022-08-22T13:49:07.440Z,27.62
2022-08-22T13:52:32.325Z,27.77
2022-08-22T13:55:45.257Z,27.46
2022-08-22T13:58:56.210Z,27.04
2022-08-22T14:02:15.305Z,26.80
2022-08-22T14:05:31.392Z,26.48
2022-08-22T14:08:37.041Z,26.21
2022-08-22T14:11:43.885Z,26.20
2022-08-22T14:14:48.979Z,26.21
2022-08-22T14:17:59.779Z,25.97
2022-08-22T14:21:33.542Z,25.73
2022-08-22T14:24:46.639Z,25.62
2022-08-22T14:28:06.448Z,25.48
2022-08-22T14:31:13.815Z,25.49
2022-08-22T14:34:16.357Z,25.47
2022-08-22T14:37:24.463Z,25.44
2022-08-22T14:40:34.086Z,25.32
2022-08-22T14:43:46.422Z,25.23
2022-08-22T14:46:51.781Z,25.27
2022-08-22T14:49:57.632Z,25.12
2022-08-22T14:53:22.054Z,25.00
2022-08-22T14:56:28.304Z,25.02
2022-08-22T14:59:36.977Z,25.07
2022-08-22T15:02:39.198Z,25.05
2022-08-22T15:05:47.785Z,24.94
2022-08-22T15:08:50.915Z,24.99
2022-08-22T15:11:53.165Z,25.24
2022-08-22T15:14:59.693Z,25.21
2022-08-22T15:18:02.539Z,24.97
2022-08-22T15:21:32.815Z,25.09
2022-08-22T15:24:40.718Z,25.46
2022-08-22T15:27:57.142Z,25.75
2022-08-22T15:31:06.387Z,25.54
2022-08-22T15:34:18.127Z,25.27
2022-08-22T15:37:20.019Z,25.12
2022-08-22T15:40:34.415Z,24.98
2022-08-22T15:43:45.588Z,24.85
2022-08-22T15:47:23.952Z,24.73
2022-08-22T15:50:55.886Z,24.54
2022-08-22T15:54:13.131Z,24.47
2022-08-22T15:57:32.627Z,24.32
2022-08-22T16:00:45.123Z,24.10
2022-08-22T16:04:06.850Z,23.90
2022-08-22T16:07:26.293Z,23.74
2022-08-22T16:10:55.622Z,23.62
2022-08-22T16:14:22.395Z,23.50
2022-08-22T16:17:30.268Z,23.40
2022-08-22T16:20:31.977Z,23.34
2022-08-22T16:23:49.600Z,23.29
2022-08-22T16:26:52.396Z,23.26
2022-08-22T16:30:06.423Z,23.23
2022-08-22T16:33:08.843Z,23.19
2022-08-22T16:36:51.656Z,23.12
2022-08-22T16:40:01.144Z,23.03
2022-08-22T16:43:17.788Z,22.93
2022-08-22T16:46:37.987Z,22.85
2022-08-22T16:50:18.472Z,22.79
2022-08-22T16:53:29.360Z,22.71
2022-08-22T16:56:49.216Z,22.66
2022-08-22T17:00:41.213Z,22.59
2022-08-22T17:04:01.216Z,22.49
2022-08-22T17:07:14.300Z,22.36
2022-08-22T17:10:31.107Z,22.17
2022-08-22T17:13:41.952Z,21.98
2022-08-22T17:16:50.878Z,21.84
2022-08-22T17:20:28.985Z,21.67
2022-08-22T17:23:49.242Z,21.52
2022-08-22T17:27:13.295Z,21.37
2022-08-22T17:30:33.232Z,21.23
2022-08-22T17:33:41.108Z,21.10
2022-08-22T17:37:10.981Z,20.99
2022-08-22T17:40:46.870Z,20.88
2022-08-22T17:44:00.588Z,20.75
2022-08-22T17:47:11.329Z,20.63
2022-08-22T17:50:15.687Z,20.49
2022-08-22T17:53:33.422Z,20.36
2022-08-22T17:56:50.117Z,20.21
2022-08-22T18:00:11.633Z,20.09
2022-08-22T18:03:22.818Z,20.00
2022-08-22T18:06:29.926Z,19.90
2022-08-22T18:09:38.077Z,19.81
2022-08-22T18:12:48.130Z,19.73
2022-08-22T18:15:57.681Z,19.66
2022-08-22T18:19:06.161Z,19.60
2022-08-22T18:22:12.794Z,19.49
2022-08-22T18:25:17.367Z,19.35
2022-08-22T18:28:29.630Z,19.26
2022-08-22T18:31:51.778Z,19.19
2022-08-22T18:35:02.551Z,19.10
2022-08-22T18:38:20.229Z,19.05
2022-08-22T18:41:31.452Z,19.01
2022-08-22T18:44:34.783Z,18.99
2022-08-22T18:47:36.507Z,18.96
2022-08-22T18:51:18.575Z,18.93
2022-08-22T18:54:35.194Z,18.89
2022-08-22T18:58:05.442Z,18.83
2022-08-22T19:01:43.998Z,18.78
2022-08-22T19:05:10.780Z,18.73
2022-08-22T19:08:19.295Z,18.70
2022-08-22T19:11:46.547Z,18.70
2022-08-22T19:15:17.784Z,18.70
2022-08-22T19:18:19.413Z,18.68
2022-08-22T19:21:43.532Z,18.65
2022-08-22T19:25:18.310Z,18.62
2022-08-22T19:28:20.036Z,18.60
2022-08-22T19:31:41.889Z,18.57
2022-08-22T19:34:47.067Z,18.55
2022-08-22T19:37:54.443Z,18.54
2022-08-22T19:40:58.488Z,18.51
2022-08-22T19:44:01.174Z,18.48
2022-08-22T19:47:05.939Z,18.46
2022-08-22T19:50:17.113Z,18.44
2022-08-22T19:53:49.094Z,18.42
2022-08-22T19:56:53.659Z,18.41
2022-08-22T20:00:18.780Z,18.40
2022-08-22T20:03:42.313Z,18.39
2022-08-22T20:07:16.316Z,18.38
2022-08-22T20:10:27.035Z,18.39
2022-08-22T20:13:32.381Z,18.42
2022-08-22T20:17:14.052Z,18.45
2022-08-22T20:20:24.509Z,18.49
2022-08-22T20:23:37.659Z,18.58
2022-08-22T20:26:52.176Z,18.64
2022-08-22T20:30:23.536Z,18.67
2022-08-22T20:33:40.422Z,18.66
2022-08-22T20:36:44.749Z,18.38
2022-08-22T20:40:56.648Z,18.14
2022-08-22T20:43:57.940Z,17.97
2022-08-22T20:47:06.016Z,17.80
2022-08-22T20:50:12.082Z,17.69
2022-08-22T20:53:19.993Z,17.63
2022-08-22T20:56:53.198Z,17.58
2022-08-22T20:59:58.778Z,17.57
2022-08-22T21:03:28.236Z,17.56
2022-08-22T21:06:37.682Z,17.55
2022-08-22T21:09:58.108Z,17.52
2022-08-22T21:13:20.105Z,17.48
2022-08-22T21:16:31.247Z,17.46
2022-08-22T21:19:34.574Z,17.42
2022-08-22T21:22:36.352Z,17.37
2022-08-22T21:25:54.364Z,17.33
2022-08-22T21:29:10.468Z,17.27
2022-08-22T21:32:33.635Z,17.25
2022-08-22T21:35:35.444Z,17.24
2022-08-22T21:38:39.992Z,17.22
2022-08-22T21:41:47.872Z,17.22
2022-08-22T21:45:02.733Z,17.21
2022-08-22T21:48:30.308Z,17.17
2022-08-22T21:51:43.916Z,17.15
2022-08-22T21:54:45.836Z,17.12
2022-08-22T21:57:48.130Z,17.10
2022-08-22T22:01:01.064Z,17.07
2022-08-22T22:04:03.583Z,17.04
2022-08-22T22:07:05.387Z,17.02
2022-08-22T22:10:10.395Z,17.01
2022-08-22T22:13:12.413Z,17.00
2022-08-22T22:16:19.774Z,16.99
2022-08-22T22:19:21.586Z,16.99
2022-08-22T22:22:24.276Z,16.98
2022-08-22T22:25:39.541Z,16.99
2022-08-22T22:28:49.268Z,17.00
2022-08-22T22:31:51.325Z,17.02
2022-08-22T22:34:53.301Z,17.02
2022-08-22T22:37:56.029Z,17.02
2022-08-22T22:40:57.852Z,17.03
2022-08-22T22:44:01.219Z,17.05
2022-08-22T22:47:03.805Z,17.06
2022-08-22T22:50:07.454Z,17.08
2022-08-22T22:53:09.665Z,17.08
2022-08-22T22:56:21.659Z,17.07
2022-08-22T22:59:24.785Z,17.04
2022-08-22T23:02:27.414Z,17.02
2022-08-22T23:05:30.826Z,17.03
2022-08-22T23:08:32.690Z,17.02
2022-08-22T23:11:35.848Z,16.99
2022-08-22T23:14:37.561Z,16.98
2022-08-22T23:17:41.135Z,16.97
2022-08-22T23:20:42.914Z,16.96
2022-08-22T23:23:45.936Z,16.93
2022-08-22T23:26:47.900Z,16.92
2022-08-22T23:29:50.560Z,16.88
2022-08-22T23:32:52.557Z,16.84
2022-08-22T23:35:59.394Z,16.82
2022-08-22T23:39:02.136Z,16.79
2022-08-22T23:42:05.182Z,16.66
2022-08-22T23:45:07.218Z,16.59
2022-08-22T23:48:09.002Z,16.59
2022-08-22T23:51:12.622Z,16.57
2022-08-22T23:54:15.984Z,16.54
2022-08-22T23:57:18.083Z,16.53
